Benson, United Kingdom
Current Conditions -  °F | °C
As of 3:50 PM on Sunday 21 Dec 2014 (Local Time) from EGUB Reporting Station
Broken Clouds Broken Clouds  
Wind Chill:   Ceiling: 2700
Heat Index:   Visibility: 6mi
Dew Point:   Wind: 17mph
Humidity: 87%   Direction: 210°SSW
Pressure: 30.24"   Gusts: NA
Location:  51.62°N, 1.11°W
Report Text: EGUB 211550Z AUTO 21015KT 9999 // SCT014/// BKN027/// 09/07 Q1024
Loading
Personal Weather Stations






























Interactive Weather Map New forecast layout! Learn more

10-Day Weather Forecast

Advertisements
Track Severe Weather on mobile